createdAt,value
2022-10-18T00:01:02.650Z,0.60
2022-10-18T00:03:30.791Z,0.65
2022-10-18T00:05:59.329Z,0.40
2022-10-18T00:08:27.362Z,0.40
2022-10-18T00:10:55.330Z,0.30
2022-10-18T00:13:23.300Z,0.50
2022-10-18T00:15:52.216Z,0.47
2022-10-18T00:18:20.036Z,0.40
2022-10-18T00:21:00.665Z,0.40
2022-10-18T00:23:29.538Z,0.30
2022-10-18T00:26:04.278Z,0.30
2022-10-18T00:28:33.748Z,0.20
2022-10-18T00:31:18.781Z,0.40
2022-10-18T00:33:49.820Z,0.30
2022-10-18T00:36:17.804Z,0.20
2022-10-18T00:38:46.277Z,0.50
2022-10-18T00:41:16.997Z,0.38
2022-10-18T00:44:11.176Z,0.38
2022-10-18T00:46:41.171Z,0.43
2022-10-18T00:49:17.419Z,1.10
2022-10-18T00:51:48.430Z,0.38
2022-10-18T00:54:17.795Z,0.80
2022-10-18T00:56:46.017Z,0.32
2022-10-18T00:59:16.170Z,0.75
2022-10-18T01:01:44.770Z,0.40
2022-10-18T01:04:14.723Z,0.30
2022-10-18T01:09:40.004Z,0.40
2022-10-18T01:12:34.552Z,0.43
2022-10-18T01:15:15.346Z,0.40
2022-10-18T01:18:09.934Z,0.30
2022-10-18T01:20:58.793Z,0.73
2022-10-18T01:23:26.321Z,0.50
2022-10-18T01:26:10.591Z,0.30
2022-10-18T01:28:50.544Z,0.60
2022-10-18T01:31:33.654Z,0.40
2022-10-18T01:34:05.888Z,1.00
2022-10-18T01:36:37.885Z,0.63
2022-10-18T01:39:12.107Z,0.30
2022-10-18T01:41:43.380Z,0.40
2022-10-18T01:44:16.141Z,0.30
2022-10-18T01:46:44.918Z,0.40
2022-10-18T01:49:12.540Z,0.50
2022-10-18T01:51:40.067Z,0.75
2022-10-18T01:54:07.691Z,0.60
2022-10-18T01:57:02.557Z,0.60
2022-10-18T02:00:20.832Z,0.52
2022-10-18T02:03:01.617Z,0.57
2022-10-18T02:05:34.992Z,0.35
2022-10-18T02:08:24.416Z,0.60
2022-10-18T02:11:00.891Z,0.63
2022-10-18T02:13:33.495Z,0.60
2022-10-18T02:16:08.036Z,0.43
2022-10-18T02:18:47.024Z,0.70
2022-10-18T02:21:17.580Z,0.50
2022-10-18T02:23:46.891Z,0.60
2022-10-18T02:26:15.962Z,0.35
2022-10-18T02:28:44.038Z,0.70
2022-10-18T02:31:43.412Z,0.75
2022-10-18T02:34:30.540Z,0.40
2022-10-18T02:37:02.157Z,0.70
2022-10-18T02:39:31.411Z,0.43
2022-10-18T02:41:59.788Z,0.50
2022-10-18T02:44:27.541Z,0.60
2022-10-18T02:46:55.651Z,0.70
2022-10-18T02:49:23.121Z,0.30
2022-10-18T02:51:50.594Z,0.47
2022-10-18T02:54:18.074Z,0.50
2022-10-18T02:56:45.569Z,0.73
2022-10-18T02:59:13.248Z,0.60
2022-10-18T03:01:41.095Z,0.40
2022-10-18T03:04:08.940Z,0.60
2022-10-18T03:06:36.522Z,0.45
2022-10-18T03:09:05.859Z,0.80
2022-10-18T03:11:33.702Z,0.70
2022-10-18T03:14:01.217Z,0.60
2022-10-18T03:16:28.848Z,0.55
2022-10-18T03:18:56.471Z,0.55
2022-10-18T03:21:24.020Z,0.80
2022-10-18T03:23:51.484Z,0.80
2022-10-18T03:26:18.959Z,1.00
2022-10-18T03:28:46.489Z,0.90
2022-10-18T03:31:14.065Z,0.82
2022-10-18T03:33:41.580Z,0.90
2022-10-18T03:36:09.602Z,0.90
2022-10-18T03:38:37.218Z,1.00
2022-10-18T03:41:04.835Z,1.20
2022-10-18T03:43:32.618Z,1.23
2022-10-18T03:46:00.540Z,1.48
2022-10-18T03:48:28.065Z,1.13
2022-10-18T03:50:55.905Z,1.10
2022-10-18T03:53:23.368Z,1.10
2022-10-18T03:55:55.352Z,1.17
2022-10-18T03:58:23.408Z,1.10
2022-10-18T04:00:52.148Z,1.10
2022-10-18T04:03:21.396Z,1.40
2022-10-18T04:05:49.561Z,1.23
2022-10-18T04:08:18.114Z,1.40
2022-10-18T04:10:47.216Z,1.08
2022-10-18T04:13:14.969Z,1.00
2022-10-18T04:15:43.357Z,1.10
2022-10-18T04:18:10.902Z,1.23
2022-10-18T04:20:38.497Z,1.15
2022-10-18T04:23:05.991Z,1.20
2022-10-18T04:25:33.584Z,1.10
2022-10-18T04:28:01.209Z,0.98
2022-10-18T04:30:28.721Z,0.90
2022-10-18T04:32:56.225Z,1.08
2022-10-18T04:35:26.039Z,1.58
2022-10-18T04:37:53.730Z,1.07
2022-10-18T04:40:21.913Z,1.30
2022-10-18T04:42:49.395Z,1.60
2022-10-18T04:45:16.919Z,1.40
2022-10-18T04:47:44.435Z,1.67
2022-10-18T04:50:11.917Z,1.60
2022-10-18T04:52:39.526Z,2.13
2022-10-18T04:55:07.416Z,2.40
2022-10-18T04:57:34.979Z,2.40
2022-10-18T05:00:02.717Z,2.72
2022-10-18T05:02:30.707Z,2.33
2022-10-18T05:04:58.617Z,2.42
2022-10-18T05:07:26.101Z,2.17
2022-10-18T05:09:53.567Z,2.60
2022-10-18T05:12:22.303Z,2.50
2022-10-18T05:14:49.751Z,2.40
2022-10-18T05:17:17.280Z,2.35
2022-10-18T05:19:44.750Z,2.30
2022-10-18T05:22:12.379Z,2.45
2022-10-18T05:24:39.868Z,2.42
2022-10-18T05:27:07.363Z,1.80
2022-10-18T05:29:34.849Z,2.15
2022-10-18T05:32:02.423Z,2.15
2022-10-18T05:34:32.096Z,2.22
2022-10-18T05:37:00.203Z,2.08
2022-10-18T05:39:27.797Z,1.73
2022-10-18T05:41:55.343Z,1.90
2022-10-18T05:44:22.839Z,1.88
2022-10-18T05:46:50.442Z,1.80
2022-10-18T05:49:18.059Z,1.60
2022-10-18T05:51:45.564Z,1.70
2022-10-18T05:54:13.363Z,1.90
2022-10-18T05:56:41.290Z,1.52
2022-10-18T05:59:12.267Z,1.63
2022-10-18T06:01:41.831Z,1.80
2022-10-18T06:04:10.459Z,1.80
2022-10-18T06:06:39.069Z,1.60
2022-10-18T06:09:07.848Z,1.98
2022-10-18T06:11:37.019Z,2.13
2022-10-18T06:14:05.268Z,1.98
2022-10-18T06:16:33.032Z,1.80
2022-10-18T06:19:00.672Z,2.45
2022-10-18T06:21:28.321Z,2.30
2022-10-18T06:23:58.187Z,2.30
2022-10-18T06:26:27.543Z,2.50
2022-10-18T06:28:55.368Z,2.20
2022-10-18T06:31:23.018Z,2.30
2022-10-18T06:33:50.678Z,2.40
2022-10-18T06:36:22.277Z,2.30
2022-10-18T06:38:50.930Z,2.22
2022-10-18T06:41:19.615Z,2.40
2022-10-18T06:43:51.441Z,1.70
2022-10-18T06:46:19.931Z,1.95
2022-10-18T06:48:47.433Z,1.63
2022-10-18T06:51:15.625Z,1.77
2022-10-18T06:53:53.462Z,2.10
2022-10-18T06:56:30.907Z,2.08
2022-10-18T07:01:30.990Z,2.72
2022-10-18T07:03:58.551Z,2.42
2022-10-18T07:06:26.134Z,2.20
2022-10-18T07:08:54.307Z,2.50
2022-10-18T07:11:25.149Z,2.45
2022-10-18T07:13:54.614Z,2.92
2022-10-18T07:16:22.310Z,2.90
2022-10-18T07:18:51.486Z,6.10
2022-10-18T07:21:22.217Z,3.00
2022-10-18T07:23:50.855Z,2.90
2022-10-18T07:26:21.930Z,2.95
2022-10-18T07:28:54.297Z,6.78
2022-10-18T07:31:22.975Z,4.57
2022-10-18T07:33:50.830Z,2.78
2022-10-18T07:36:18.524Z,3.20
2022-10-18T07:38:46.023Z,3.03
2022-10-18T07:41:14.740Z,2.53
2022-10-18T07:43:48.096Z,2.67
2022-10-18T07:46:18.189Z,2.80
2022-10-18T07:48:45.984Z,2.65
2022-10-18T07:51:13.835Z,3.20
2022-10-18T07:53:41.415Z,3.22
2022-10-18T07:56:11.974Z,4.23
2022-10-18T07:58:39.933Z,3.78
2022-10-18T08:01:08.973Z,3.25
2022-10-18T08:03:37.682Z,3.80
2022-10-18T08:06:09.227Z,5.03
2022-10-18T08:08:38.928Z,6.03
2022-10-18T08:11:09.567Z,5.20
2022-10-18T08:13:37.219Z,5.22
2022-10-18T08:16:11.414Z,4.63
2022-10-18T08:18:39.647Z,4.10
2022-10-18T08:21:13.375Z,3.70
2022-10-18T08:23:41.471Z,3.85
2022-10-18T08:26:11.913Z,3.50
2022-10-18T08:28:40.427Z,3.20
2022-10-18T08:31:13.384Z,2.90
2022-10-18T08:33:41.092Z,3.43
2022-10-18T08:36:11.751Z,3.75
2022-10-18T08:38:41.361Z,4.05
2022-10-18T08:41:30.124Z,4.50
2022-10-18T08:44:07.450Z,4.32
2022-10-18T08:46:37.316Z,3.63
2022-10-18T08:49:07.295Z,3.40
2022-10-18T08:51:46.746Z,4.22
2022-10-18T08:54:22.479Z,3.30
2022-10-18T08:57:02.019Z,2.83
2022-10-18T08:59:39.017Z,2.80
2022-10-18T09:02:15.672Z,2.60
2022-10-18T09:05:01.234Z,2.75
2022-10-18T09:08:00.155Z,2.50
2022-10-18T09:10:42.885Z,3.33
2022-10-18T09:13:16.150Z,3.70
2022-10-18T09:15:52.668Z,3.67
2022-10-18T09:18:40.707Z,3.50
2022-10-18T09:21:27.107Z,3.38
2022-10-18T09:24:13.457Z,3.70
2022-10-18T09:26:49.969Z,3.60
2022-10-18T09:29:26.765Z,3.53
2022-10-18T09:32:45.189Z,3.28
2022-10-18T09:35:15.107Z,3.03
2022-10-18T09:37:44.101Z,2.58
2022-10-18T09:40:23.546Z,2.93
2022-10-18T09:42:51.042Z,2.50
2022-10-18T09:45:34.775Z,2.53
2022-10-18T09:48:23.861Z,2.28
2022-10-18T09:51:02.813Z,2.30
2022-10-18T09:53:32.978Z,2.27
2022-10-18T09:56:19.112Z,2.33
2022-10-18T09:58:49.377Z,2.30
2022-10-18T10:01:22.107Z,1.75
2022-10-18T10:03:49.641Z,1.70
2022-10-18T10:06:18.404Z,1.60
2022-10-18T10:08:54.470Z,1.80
2022-10-18T10:11:46.263Z,1.50
2022-10-18T10:14:21.652Z,1.35
2022-10-18T10:16:50.898Z,1.55
2022-10-18T10:19:25.278Z,1.80
2022-10-18T10:21:57.175Z,1.85
2022-10-18T10:24:35.679Z,1.20
2022-10-18T10:27:14.911Z,1.17
2022-10-18T10:29:45.579Z,2.35
2022-10-18T10:32:15.812Z,2.63
2022-10-18T10:34:44.966Z,1.23
2022-10-18T10:37:32.504Z,1.60
2022-10-18T10:40:31.682Z,1.10
2022-10-18T10:43:12.912Z,0.88
2022-10-18T10:46:02.400Z,1.30
2022-10-18T10:48:40.923Z,1.30
2022-10-18T10:51:10.624Z,0.90
2022-10-18T10:53:46.278Z,1.10
2022-10-18T10:56:38.943Z,1.88
2022-10-18T10:59:20.136Z,0.80
2022-10-18T11:01:50.241Z,0.80
2022-10-18T11:04:29.748Z,0.80
2022-10-18T11:06:57.215Z,0.60
2022-10-18T11:09:31.277Z,0.68
2022-10-18T11:12:18.518Z,0.80
2022-10-18T11:14:56.025Z,0.82
2022-10-18T11:17:40.632Z,0.85
2022-10-18T11:20:09.978Z,0.40
2022-10-18T11:22:51.988Z,0.45
2022-10-18T11:25:25.332Z,0.70
2022-10-18T11:28:01.942Z,0.50
2022-10-18T11:30:43.481Z,0.60
2022-10-18T11:33:10.938Z,0.60
2022-10-18T11:35:48.099Z,0.40
2022-10-18T11:38:45.127Z,0.50
2022-10-18T11:41:12.606Z,0.50
2022-10-18T11:44:01.145Z,0.45
2022-10-18T11:46:48.687Z,0.60
2022-10-18T11:49:32.406Z,0.50
2022-10-18T11:52:13.919Z,0.50
2022-10-18T11:55:12.128Z,0.55
2022-10-18T11:58:13.424Z,0.55
2022-10-18T12:01:07.474Z,0.50
2022-10-18T12:04:02.053Z,0.50
2022-10-18T12:06:41.401Z,0.50
2022-10-18T12:09:28.878Z,0.50
2022-10-18T12:12:22.482Z,0.70
2022-10-18T12:14:55.695Z,0.50
2022-10-18T12:17:47.533Z,0.50
2022-10-18T12:20:31.784Z,0.40
2022-10-18T12:22:59.178Z,0.50
2022-10-18T12:25:30.198Z,0.40
2022-10-18T12:28:02.571Z,0.40
2022-10-18T12:31:04.398Z,0.57
2022-10-18T12:33:39.602Z,0.37
2022-10-18T12:36:19.004Z,0.40
2022-10-18T12:38:51.981Z,0.35
2022-10-18T12:41:27.407Z,0.32
2022-10-18T12:44:04.534Z,0.50
2022-10-18T12:46:49.164Z,0.50
2022-10-18T12:49:24.191Z,0.40
2022-10-18T12:51:54.302Z,0.30
2022-10-18T12:54:32.637Z,0.40
2022-10-18T12:57:02.032Z,0.40
2022-10-18T12:59:29.563Z,0.40
2022-10-18T13:01:57.077Z,0.47
2022-10-18T13:04:27.347Z,0.40
2022-10-18T13:07:00.780Z,0.70
2022-10-18T13:09:29.422Z,0.40
2022-10-18T13:12:15.106Z,0.47
2022-10-18T13:15:05.723Z,0.43
2022-10-18T13:17:48.928Z,0.30
2022-10-18T13:20:39.518Z,0.60
2022-10-18T13:23:41.990Z,0.47
2022-10-18T13:26:41.702Z,0.43
2022-10-18T13:29:37.532Z,0.40
2022-10-18T13:32:08.189Z,0.47
2022-10-18T13:34:39.168Z,0.40
2022-10-18T13:37:20.755Z,0.40
2022-10-18T13:39:48.493Z,0.47
2022-10-18T13:42:15.908Z,0.40
2022-10-18T13:44:44.818Z,0.32
2022-10-18T13:47:14.973Z,0.40
2022-10-18T13:49:58.485Z,0.32
2022-10-18T13:53:08.252Z,0.20
2022-10-18T13:55:55.834Z,0.32
2022-10-18T13:59:05.669Z,0.30
2022-10-18T14:01:47.459Z,0.40
2022-10-18T14:04:39.931Z,0.30
2022-10-18T14:07:09.009Z,0.40
2022-10-18T14:09:56.125Z,0.20
2022-10-18T14:12:46.005Z,0.30
2022-10-18T14:15:27.690Z,0.28
2022-10-18T14:18:04.937Z,0.30
2022-10-18T14:20:49.429Z,0.20
2022-10-18T14:23:48.031Z,0.30
2022-10-18T14:26:17.973Z,0.25
2022-10-18T14:28:59.668Z,0.70
2022-10-18T14:31:28.567Z,0.35
2022-10-18T14:33:59.013Z,0.40
2022-10-18T14:36:34.638Z,0.60
2022-10-18T14:39:05.166Z,0.25
2022-10-18T14:41:34.999Z,0.40
2022-10-18T14:44:11.478Z,0.82
2022-10-18T14:46:44.434Z,0.40
2022-10-18T14:49:13.674Z,0.57
2022-10-18T14:51:43.823Z,0.30
2022-10-18T14:54:16.186Z,0.30
2022-10-18T14:56:45.016Z,0.10
2022-10-18T14:59:22.563Z,0.10
2022-10-18T15:01:56.867Z,0.25
2022-10-18T15:04:32.742Z,0.28
2022-10-18T15:07:05.471Z,0.10
2022-10-18T15:09:36.099Z,0.50
2022-10-18T15:12:05.963Z,0.53
2022-10-18T15:14:35.262Z,0.25
2022-10-18T15:17:24.546Z,0.20
2022-10-18T15:20:06.186Z,0.20
2022-10-18T15:22:34.238Z,0.20
2022-10-18T15:25:12.724Z,0.10
2022-10-18T15:27:46.350Z,0.30
2022-10-18T15:30:22.860Z,0.30
2022-10-18T15:32:56.834Z,0.40
2022-10-18T15:35:34.755Z,0.25
2022-10-18T15:38:13.594Z,0.40
2022-10-18T15:40:41.832Z,0.30
2022-10-18T15:43:24.796Z,0.20
2022-10-18T15:45:53.898Z,0.20
2022-10-18T15:48:23.483Z,0.28
2022-10-18T15:51:04.889Z,0.63
2022-10-18T15:53:51.522Z,0.38
2022-10-18T15:56:36.941Z,0.40
2022-10-18T15:59:21.600Z,0.30
2022-10-18T16:01:49.344Z,0.40
2022-10-18T16:04:29.450Z,0.47
2022-10-18T16:06:58.558Z,0.30
2022-10-18T16:09:28.096Z,0.30
2022-10-18T16:11:57.461Z,0.50
2022-10-18T16:14:26.453Z,0.40
2022-10-18T16:16:56.580Z,0.60
2022-10-18T16:19:24.401Z,0.77
2022-10-18T16:21:54.199Z,0.63
2022-10-18T16:24:22.145Z,0.40
2022-10-18T16:26:50.491Z,0.50
2022-10-18T16:29:31.969Z,0.40
2022-10-18T16:32:00.091Z,0.50
2022-10-18T16:34:27.721Z,0.90
2022-10-18T16:36:55.676Z,0.50
2022-10-18T16:39:23.582Z,0.63
2022-10-18T16:41:51.703Z,0.40
2022-10-18T16:44:19.349Z,0.40
2022-10-18T16:46:50.983Z,0.30
2022-10-18T16:49:24.659Z,0.40
2022-10-18T16:51:53.733Z,0.55
2022-10-18T16:54:21.732Z,0.40
2022-10-18T16:56:50.286Z,0.30
2022-10-18T16:59:25.911Z,0.40
2022-10-18T17:01:53.603Z,0.50
2022-10-18T17:04:21.235Z,0.47
2022-10-18T17:06:51.453Z,0.40
2022-10-18T17:09:19.073Z,0.30
2022-10-18T17:11:46.569Z,0.40
2022-10-18T17:14:14.060Z,0.80
2022-10-18T17:16:44.452Z,0.45
2022-10-18T17:19:14.949Z,0.40
2022-10-18T17:21:42.571Z,0.50
2022-10-18T17:24:10.277Z,0.60
2022-10-18T17:26:37.753Z,0.60
2022-10-18T17:29:08.596Z,0.60
2022-10-18T17:31:36.239Z,0.40
2022-10-18T17:34:03.989Z,0.50
2022-10-18T17:36:33.456Z,0.50
2022-10-18T17:39:01.163Z,0.57
2022-10-18T17:41:28.796Z,0.45
2022-10-18T17:43:56.640Z,0.50
2022-10-18T17:46:24.159Z,0.55
2022-10-18T17:48:51.645Z,0.40
2022-10-18T17:51:19.299Z,0.50
2022-10-18T17:53:46.810Z,0.40
2022-10-18T17:56:15.309Z,0.57
2022-10-18T17:58:43.728Z,0.50
2022-10-18T18:01:17.693Z,0.50
2022-10-18T18:03:47.691Z,0.57
2022-10-18T18:06:24.001Z,0.40
2022-10-18T18:08:52.463Z,0.63
2022-10-18T18:11:20.287Z,0.80
2022-10-18T18:13:47.940Z,0.88
2022-10-18T18:16:15.462Z,0.60
2022-10-18T18:18:44.151Z,0.70
2022-10-18T18:21:12.288Z,0.77
2022-10-18T18:23:39.994Z,0.60
2022-10-18T18:26:07.817Z,0.82
2022-10-18T18:28:36.446Z,0.60
2022-10-18T18:31:14.823Z,0.50
2022-10-18T18:33:43.130Z,0.90
2022-10-18T18:36:11.452Z,0.63
2022-10-18T18:38:42.798Z,0.80
2022-10-18T18:41:14.148Z,0.90
2022-10-18T18:43:44.387Z,1.60
2022-10-18T18:46:15.222Z,0.77
2022-10-18T18:48:43.005Z,0.57
2022-10-18T18:51:19.471Z,0.82
2022-10-18T18:53:48.301Z,0.57
2022-10-18T18:56:18.750Z,0.88
2022-10-18T18:58:47.092Z,0.63
2022-10-18T19:01:20.205Z,0.77
2022-10-18T19:03:50.947Z,0.82
2022-10-18T19:06:21.481Z,1.10
2022-10-18T19:08:50.006Z,0.80
2022-10-18T19:11:19.965Z,1.00
2022-10-18T19:13:49.158Z,0.70
2022-10-18T19:16:24.531Z,0.98
2022-10-18T19:18:52.864Z,0.80
2022-10-18T19:21:21.631Z,1.10
2022-10-18T19:23:50.321Z,1.53
2022-10-18T19:26:45.462Z,0.98
2022-10-18T19:29:25.947Z,0.80
2022-10-18T19:31:57.065Z,1.27
2022-10-18T19:34:27.543Z,1.45
2022-10-18T19:36:55.881Z,0.70
2022-10-18T19:39:34.268Z,0.98
2022-10-18T19:42:05.120Z,0.93
2022-10-18T19:44:36.011Z,0.90
2022-10-18T19:47:05.582Z,0.88
2022-10-18T19:49:33.096Z,0.90
2022-10-18T19:52:00.623Z,0.85
2022-10-18T19:54:28.454Z,0.70
2022-10-18T19:56:58.400Z,0.90
2022-10-18T19:59:26.049Z,1.10
2022-10-18T20:01:53.652Z,0.90
2022-10-18T20:04:21.200Z,0.80
2022-10-18T20:06:49.717Z,0.82
2022-10-18T20:09:20.418Z,1.23
2022-10-18T20:11:48.537Z,0.90
2022-10-18T20:14:16.108Z,0.73
2022-10-18T20:16:43.641Z,1.02
2022-10-18T20:19:11.753Z,0.80
2022-10-18T20:21:40.083Z,0.85
2022-10-18T20:24:09.372Z,0.90
2022-10-18T20:26:37.152Z,0.87
2022-10-18T20:29:04.855Z,0.73
2022-10-18T20:31:37.198Z,0.73
2022-10-18T20:34:11.762Z,0.65
2022-10-18T20:36:39.929Z,0.75
2022-10-18T20:39:08.004Z,0.70
2022-10-18T20:41:38.921Z,0.70
2022-10-18T20:44:11.477Z,0.77
2022-10-18T20:46:39.405Z,0.70
2022-10-18T20:49:08.280Z,0.70
2022-10-18T20:51:36.449Z,0.80
2022-10-18T20:54:06.430Z,0.80
2022-10-18T20:56:36.524Z,0.88
2022-10-18T20:59:06.267Z,0.70
2022-10-18T21:01:34.470Z,0.85
2022-10-18T21:04:04.634Z,0.97
2022-10-18T21:06:41.152Z,0.63
2022-10-18T21:09:12.376Z,0.80
2022-10-18T21:11:41.938Z,1.15
2022-10-18T21:14:15.068Z,0.80
2022-10-18T21:16:46.084Z,0.70
2022-10-18T21:19:15.276Z,1.23
2022-10-18T21:21:45.017Z,0.70
2022-10-18T21:24:13.952Z,0.60
2022-10-18T21:26:41.503Z,0.75
2022-10-18T21:29:11.594Z,0.60
2022-10-18T21:31:41.412Z,0.70
2022-10-18T21:34:15.832Z,0.90
2022-10-18T21:36:45.361Z,0.52
2022-10-18T21:39:16.060Z,0.55
2022-10-18T21:41:44.521Z,0.60
2022-10-18T21:44:12.960Z,0.77
2022-10-18T21:46:43.014Z,0.63
2022-10-18T21:49:11.406Z,0.70
2022-10-18T21:51:39.258Z,0.65
2022-10-18T21:54:11.363Z,0.67
2022-10-18T21:56:39.154Z,0.82
2022-10-18T21:59:06.640Z,0.80
2022-10-18T22:01:38.555Z,0.95
2022-10-18T22:04:08.143Z,0.82
2022-10-18T22:06:36.833Z,0.60
2022-10-18T22:09:08.445Z,0.82
2022-10-18T22:11:40.263Z,0.70
2022-10-18T22:14:08.107Z,1.20
2022-10-18T22:16:36.100Z,0.70
2022-10-18T22:19:05.629Z,0.90
2022-10-18T22:21:33.791Z,0.68
2022-10-18T22:24:06.084Z,0.77
2022-10-18T22:26:39.250Z,1.33
2022-10-18T22:29:17.124Z,0.80
2022-10-18T22:31:47.742Z,0.70
2022-10-18T22:34:20.948Z,1.00
2022-10-18T22:36:48.857Z,1.10
2022-10-18T22:39:17.221Z,1.10
2022-10-18T22:41:45.396Z,0.80
2022-10-18T22:44:14.409Z,1.03
2022-10-18T22:46:42.536Z,1.00
2022-10-18T22:49:11.680Z,0.77
2022-10-18T22:51:40.069Z,0.90
2022-10-18T22:54:08.269Z,1.10
2022-10-18T22:56:35.862Z,0.90
2022-10-18T22:59:03.428Z,0.85
2022-10-18T23:01:30.948Z,0.80
2022-10-18T23:03:59.983Z,1.30
2022-10-18T23:06:30.129Z,1.05
2022-10-18T23:08:59.344Z,0.80
2022-10-18T23:11:28.081Z,0.70
2022-10-18T23:13:55.614Z,0.90
2022-10-18T23:16:23.661Z,0.70
2022-10-18T23:18:52.560Z,0.80
2022-10-18T23:21:20.981Z,0.70
2022-10-18T23:23:48.452Z,1.10
2022-10-18T23:26:19.673Z,0.77
2022-10-18T23:28:48.644Z,0.68
2022-10-18T23:31:31.010Z,0.70
2022-10-18T23:34:01.224Z,0.80
2022-10-18T23:36:29.448Z,0.80
2022-10-18T23:38:57.172Z,1.40
2022-10-18T23:41:25.343Z,0.65
2022-10-18T23:43:53.119Z,0.82
2022-10-18T23:46:20.862Z,0.83
2022-10-18T23:48:48.942Z,1.00
2022-10-18T23:51:17.247Z,0.68
2022-10-18T23:53:45.072Z,1.00
2022-10-18T23:56:15.707Z,0.70
2022-10-18T23:58:44.545Z,0.80
